Terminal Aerodrome Forecast
Issued by NWS

Home | Current Version | Previous Version | Text Only | Print | Product List | Glossary On
Versions: 1 2 3 4 5 6 7 8 9 10 11 12 13 14 15
000
FTUS41 KLWX 131730
TAFMTN
TAF
KMTN 131730Z 1318/1418 28017G29KT P6SM FEW150 FEW250
     FM132100 27012G22KT P6SM BKN100 BKN250
     FM132300 24007KT P6SM BKN070 BKN150
     FM140300 19006KT P6SM VCSH BKN060 OVC070
     FM141000 23008KT P6SM BKN060 OVC100
     FM141400 30011G19KT P6SM FEW040 SCT090=

USA.gov is the U.S. government's official web portal to all federal, state and local government web resources and services.